Share

Kobuk Valley National Park, AK

7:07 AM AKDT op 24 april 2014 (GMT -0800)
Baker Memorial (PAIK) Hoogte 151 ft | 66.98 °N, 160.44 °W | Change Station

Current weather conditions updated 6 minutes ago

Clear
Helder
29 °F
Voelt als 29 °F
N
0
Wind Variabel Wind van noord
Zonsopkomst 6:13 AM
Zonsondergang 11:08 PM
Maan Afnemende halvemaan

Er wordt verwacht dat de temperatuur vandaag bijna hetzelfde is als gisteren.

Druk 29.84 inches
Zicht 10.0 mijlen
Wolken Helder
Dauwpunt 26 °F
Vochtigheid 89%
Neerslag 0.00 inches
Dikte sneeuw Niet beschikbaar.
UV 0 van de 16
Pollen Niet beschikbaar.
Luchtkwaliteit Niet beschikbaar.
Flu Activity Sporadic
METAR PAIK 241501Z AUTO 00000KT 10SM CLR M02/M03 A2972 RMK AO2 SLP105 T10171033 58003 FZRANO

More Conditions Fewer Conditions

Druk 29.84 inches
Zicht 10.0 mijlen
Wolken Helder
Dauwpunt 26 °F
Vochtigheid 89%
Neerslag 0.00 inches
Dikte sneeuw Niet beschikbaar.
UV 0 van de 16
Pollen Niet beschikbaar.
Luchtkwaliteit Niet beschikbaar.
Flu Activity Sporadic
METAR PAIK 241501Z AUTO 00000KT 10SM CLR M02/M03 A2972 RMK AO2 SLP105 T10171033 58003 FZRANO

More Conditions Fewer Conditions

10-Day Weather Forecast

Almanac

Astronomie

Apr. 24, 2014 Opkomst Ondergang
Werkelijke tijd 6:13 AM AKDT 11:08 PM AKDT
Burgerlijke schemering 4:52 AM AKDT 12:31 AM AKDT
Nautische schemering Sun does not rise Sun does not rise
Astronomische schemering Sun does not rise Sun does not rise
Maan 5:48 AM AKDT 4:30 PM AKDT
Golflengte van het zichtbare licht 19h 39m
Daglengte
16h 55m
Tomorrow will be 8m 24s longer.
Afnemende halvemaan, 25% of the Moon is Illuminated
Vandaag
Afnemende halvemaan
apr 29
Nieuw
mei 6
Eerste kwartier
mei 14
Volle maan
mei 21
Laatste kwartier

Extremen vandaag

State Highs State Lows

Community

  • Sunset at Apalachicola Bay, Florida
    Sunset at Apalachicola Bay, Florida
  • Clouds mov'n in
    Clouds mov'n in
  • Stacked
    Stacked
  • clouds approaching Red Sox Nation
    clouds approaching Red Sox Nation
  • Balance
    Balance

WunderPhotos

Upload Photos

1,704,641 foto’s ge-upload!

WunderBlogs® & News

By Dr. Jeff Masters
Director of Meteorology, Weather Underground
By Kari Strenfel
Meteorologist, Weather Underground
By Christopher C. Burt
Weather Historian, Weather Underground
April 24, 2014
April 24, 2014
April 24, 2014

Nearby

Luchtkwaliteit

Not available.

Dikte sneeuw

Station Depth Geometrische hoogte
Pargon Creek 0 in 300 ft
Rocky Point 0 in 500 ft
Gobblers Knob 6 in 2030 ft
Coldfoot 21 in 1040 ft
Atigun Pass 37 in 4800 ft

Watertemperatuur langs de kust

Plaats Temperatuur
Geen meldingen van stations

Aardbevingen

Stad Distance Mag. Time & Date
No recent earthquake activity has been reported nearby.
Minimum magnitude displayed is 2.5.

Nabije weerstations

Geen persoonlijke weerstations in dit gebied.

What do you think?

We're not finished. Please let us know what you like, what you don't like, and what you are still missing.